Time;durP1;ratioP1;P1;durP2;ratioP2;P2;SDS_P1;SDS_P2;PMS_P1;PMS_P2;Temp;Humidity;BMP_temperature;BMP_pressure;BME280_temperature;BME280_humidity;BME280_pressure;Samples;Min_cycle;Max_cycle;Signal;HPM_P1;HPM_P2
2022/01/01 00:00:12;;;;;;;35.50;22.63;;;14.90;99.90;;;;;;5048220;28;20218;-79
2022/01/01 00:02:39;;;;;;;29.17;20.37;;;14.80;99.90;;;;;;5048719;28;20599;-79
2022/01/01 00:05:09;;;;;;;34.17;19.77;;;14.80;99.90;;;;;;5048694;28;20281;-84
2022/01/01 00:07:38;;;;;;;39.97;19.10;;;14.80;99.90;;;;;;5040797;28;20242;-85
2022/01/01 00:10:05;;;;;;;26.20;16.17;;;14.80;99.90;;;;;;5038274;28;20222;-84
2022/01/01 00:12:32;;;;;;;26.40;15.77;;;14.80;99.90;;;;;;5039035;28;20237;-77
2022/01/01 00:14:59;;;;;;;24.93;15.27;;;14.80;99.90;;;;;;5046900;28;20226;-78
2022/01/01 00:17:26;;;;;;;30.77;14.87;;;14.80;99.90;;;;;;5048040;28;20396;-78
2022/01/01 00:19:52;;;;;;;25.63;13.23;;;14.80;99.90;;;;;;5058174;28;20239;-78
2022/01/01 00:22:21;;;;;;;30.13;14.03;;;14.80;99.90;;;;;;5047322;28;20234;-78
2022/01/01 00:24:47;;;;;;;26.23;13.37;;;14.80;99.90;;;;;;5047553;28;20227;-78
2022/01/01 00:27:14;;;;;;;24.73;11.20;;;14.80;99.90;;;;;;5048748;28;20229;-77
2022/01/01 00:29:41;;;;;;;19.93;11.03;;;14.80;99.90;;;;;;5047754;28;20607;-78
2022/01/01 00:32:07;;;;;;;22.20;11.73;;;14.80;99.90;;;;;;5045932;28;20243;-78
2022/01/01 00:34:36;;;;;;;18.37;10.33;;;14.80;99.90;;;;;;5048092;28;20220;-78
2022/01/01 00:37:03;;;;;;;20.03;9.90;;;14.80;99.90;;;;;;5047617;28;20227;-78
2022/01/01 00:39:31;;;;;;;23.93;9.70;;;14.80;99.90;;;;;;5047179;28;20234;-78
2022/01/01 00:41:57;;;;;;;19.67;9.63;;;14.80;99.90;;;;;;5048016;28;20223;-78
2022/01/01 00:44:25;;;;;;;19.50;9.20;;;14.70;99.90;;;;;;5041918;28;20232;-78
2022/01/01 00:46:51;;;;;;;17.93;9.00;;;14.80;99.90;;;;;;5055079;28;20222;-78
2022/01/01 00:49:18;;;;;;;18.90;9.67;;;14.70;99.90;;;;;;5052071;28;20226;-78
2022/01/01 00:51:45;;;;;;;21.27;9.60;;;14.70;99.90;;;;;;5046820;28;20227;-79
2022/01/01 00:54:11;;;;;;;18.30;9.33;;;14.70;99.90;;;;;;5046193;28;20711;-78
2022/01/01 00:56:39;;;;;;;21.27;10.40;;;14.70;99.90;;;;;;5047131;28;20601;-78
2022/01/01 00:59:06;;;;;;;21.17;11.10;;;14.70;99.90;;;;;;5046558;28;20227;-78
2022/01/01 01:01:33;;;;;;;23.10;9.07;;;14.70;99.90;;;;;;5044132;28;20218;-78
2022/01/01 01:03:59;;;;;;;25.10;9.40;;;14.70;99.90;;;;;;5045801;28;20254;-78
2022/01/01 01:06:26;;;;;;;16.57;8.33;;;14.70;99.90;;;;;;5045392;28;20329;-78
2022/01/01 01:08:55;;;;;;;20.03;8.57;;;14.70;99.90;;;;;;5045199;28;20235;-78
2022/01/01 01:11:22;;;;;;;18.77;8.10;;;14.70;99.90;;;;;;5046254;28;20309;-78
2022/01/01 01:13:57;;;;;;;20.60;8.50;;;14.70;99.90;;;;;;5044672;28;20317;-78
2022/01/01 01:16:24;;;;;;;20.33;7.70;;;14.70;99.90;;;;;;5044581;28;20226;-78
2022/01/01 01:18:53;;;;;;;15.17;7.57;;;14.70;99.90;;;;;;5046755;28;20219;-78
2022/01/01 01:21:20;;;;;;;17.00;7.77;;;14.70;99.90;;;;;;5043266;28;20232;-78
2022/01/01 01:23:48;;;;;;;17.23;7.97;;;14.70;99.90;;;;;;5044655;28;20265;-78
2022/01/01 01:26:15;;;;;;;20.27;7.90;;;14.70;99.90;;;;;;5041058;28;20251;-78
2022/01/01 01:28:47;;;;;;;16.73;6.97;;;14.70;99.90;;;;;;5042313;28;20230;-78
2022/01/01 01:31:16;;;;;;;20.77;7.97;;;14.70;99.90;;;;;;5046082;28;20532;-78
2022/01/01 01:33:43;;;;;;;21.63;9.03;;;14.70;99.90;;;;;;5046035;28;20217;-78
2022/01/01 01:36:10;;;;;;;16.93;8.90;;;14.70;99.90;;;;;;5046542;28;20229;-78
2022/01/01 01:38:37;;;;;;;16.83;7.93;;;14.70;99.90;;;;;;5045857;28;20226;-78
2022/01/01 01:41:04;;;;;;;19.00;8.27;;;14.70;99.90;;;;;;5045043;28;21005;-78
2022/01/01 01:43:31;;;;;;;19.00;8.13;;;14.70;99.90;;;;;;5041479;28;20645;-78
2022/01/01 01:46:04;;;;;;;21.47;8.50;;;14.70;99.90;;;;;;5046369;28;20212;-77
2022/01/01 01:48:34;;;;;;;19.47;8.47;;;14.70;99.90;;;;;;5042412;28;20296;-77
2022/01/01 01:51:01;;;;;;;18.50;8.40;;;14.70;99.90;;;;;;5053643;28;20228;-77
2022/01/01 01:53:29;;;;;;;19.40;8.80;;;14.70;99.90;;;;;;5044820;28;20216;-78
2022/01/01 01:55:58;;;;;;;17.53;7.90;;;14.70;99.90;;;;;;5047178;28;20242;-77
2022/01/01 01:58:25;;;;;;;20.53;8.43;;;14.70;99.90;;;;;;5049423;28;20231;-77
2022/01/01 02:01:20;;;;;;;16.13;7.90;;;14.70;99.90;;;;;;5048171;28;20226;-78
2022/01/01 02:03:49;;;;;;;22.50;8.47;;;14.70;99.90;;;;;;5046735;28;20239;-78
2022/01/01 02:06:18;;;;;;;22.67;8.27;;;14.70;99.90;;;;;;5049090;28;20633;-78
2022/01/01 02:08:49;;;;;;;16.70;8.00;;;14.70;99.90;;;;;;5045865;28;20293;-77
2022/01/01 02:11:17;;;;;;;18.80;7.97;;;14.70;99.90;;;;;;5049993;28;20223;-77
2022/01/01 02:14:00;;;;;;;19.77;7.97;;;14.70;99.90;;;;;;5049371;28;20219;-77
2022/01/01 02:16:35;;;;;;;19.33;8.10;;;14.70;99.90;;;;;;5048008;28;20318;-77
2022/01/01 02:19:03;;;;;;;18.60;8.30;;;14.60;99.90;;;;;;5048969;28;20308;-77
2022/01/01 02:21:31;;;;;;;18.73;8.13;;;14.70;99.90;;;;;;5046585;28;20556;-77
2022/01/01 02:23:59;;;;;;;21.23;8.40;;;14.70;99.90;;;;;;5044352;28;20235;-78
2022/01/01 02:26:32;;;;;;;19.90;7.87;;;14.70;99.90;;;;;;5046238;28;20307;-78
2022/01/01 02:29:00;;;;;;;25.93;8.13;;;14.70;99.90;;;;;;5044464;28;20227;-78
2022/01/01 02:31:27;;;;;;;21.63;8.33;;;14.70;99.90;;;;;;5049595;28;20231;-77
2022/01/01 02:33:54;;;;;;;19.03;7.87;;;14.70;99.90;;;;;;5048160;28;20309;-78
2022/01/01 02:36:42;;;;;;;23.00;8.63;;;14.70;99.90;;;;;;5049188;28;20220;-77
2022/01/01 02:39:12;;;;;;;19.77;8.60;;;14.70;99.90;;;;;;5063910;28;20977;-77
2022/01/01 02:41:38;;;;;;;21.87;10.03;;;14.70;99.90;;;;;;5035119;28;20242;-78
2022/01/01 02:44:06;;;;;;;23.33;9.67;;;14.70;99.90;;;;;;5049145;28;20234;-78
2022/01/01 02:46:33;;;;;;;19.77;8.70;;;14.70;99.90;;;;;;5049624;28;20295;-78
2022/01/01 02:49:00;;;;;;;20.03;8.57;;;14.70;99.90;;;;;;5049008;28;20792;-77
2022/01/01 02:51:27;;;;;;;24.57;9.20;;;14.70;99.90;;;;;;5049850;28;20885;-77
2022/01/01 02:53:55;;;;;;;21.03;8.50;;;14.70;99.90;;;;;;5049304;28;20644;-77
2022/01/01 02:56:22;;;;;;;24.27;8.63;;;14.70;99.90;;;;;;5044068;28;20688;-77
2022/01/01 02:58:48;;;;;;;17.93;8.83;;;14.70;99.90;;;;;;5049236;28;20317;-77
2022/01/01 03:01:15;;;;;;;21.00;9.40;;;14.70;99.90;;;;;;5048209;28;20234;-78
2022/01/01 03:03:42;;;;;;;18.57;8.63;;;14.70;99.90;;;;;;5048729;28;20731;-78
2022/01/01 03:06:09;;;;;;;23.70;8.83;;;14.70;99.90;;;;;;5043974;28;20226;-78
2022/01/01 03:08:36;;;;;;;25.87;9.53;;;14.70;99.90;;;;;;5048640;28;20849;-78
2022/01/01 03:11:05;;;;;;;21.87;8.43;;;14.70;99.90;;;;;;5048436;28;20305;-78
2022/01/01 03:13:32;;;;;;;17.60;9.17;;;14.70;99.90;;;;;;5048097;28;20227;-77
2022/01/01 03:15:59;;;;;;;22.47;9.63;;;14.70;99.90;;;;;;5046285;28;20222;-78
2022/01/01 03:18:25;;;;;;;20.87;9.60;;;14.70;99.90;;;;;;5048131;28;20327;-78
2022/01/01 03:20:52;;;;;;;22.27;9.57;;;14.70;99.90;;;;;;5048199;28;20227;-78
2022/01/01 03:23:19;;;;;;;21.67;9.37;;;14.70;99.90;;;;;;5047307;28;20222;-78
2022/01/01 03:25:45;;;;;;;16.87;9.10;;;14.70;99.90;;;;;;5044197;28;20234;-78
2022/01/01 03:28:13;;;;;;;23.23;9.83;;;14.70;99.90;;;;;;5039071;28;20226;-78
2022/01/01 03:30:40;;;;;;;25.00;10.70;;;14.70;99.90;;;;;;5046953;28;20253;-78
2022/01/01 03:33:07;;;;;;;21.13;9.97;;;14.70;99.90;;;;;;5047030;28;20768;-77
2022/01/01 03:35:33;;;;;;;24.47;10.00;;;14.70;99.90;;;;;;5045517;28;20890;-77
2022/01/01 03:38:00;;;;;;;19.07;9.77;;;14.70;99.90;;;;;;5046726;28;20771;-77
2022/01/01 03:40:27;;;;;;;19.97;9.10;;;14.70;99.90;;;;;;5045520;28;20688;-77
2022/01/01 03:42:53;;;;;;;21.27;9.83;;;14.70;99.90;;;;;;5045342;28;20234;-77
2022/01/01 03:45:22;;;;;;;26.03;10.40;;;14.70;99.90;;;;;;5045128;28;20226;-78
2022/01/01 03:47:48;;;;;;;22.47;9.83;;;14.70;99.90;;;;;;5047018;28;20367;-77
2022/01/01 03:50:15;;;;;;;23.23;10.53;;;14.70;99.90;;;;;;5045991;28;20226;-77
2022/01/01 03:52:43;;;;;;;21.53;9.87;;;14.70;99.90;;;;;;5047229;28;20304;-78
2022/01/01 03:55:11;;;;;;;19.10;9.53;;;14.70;99.90;;;;;;5047142;28;20233;-78
2022/01/01 03:57:38;;;;;;;26.57;10.47;;;14.70;99.90;;;;;;5041466;28;20228;-77
2022/01/01 04:00:08;;;;;;;25.50;10.57;;;14.70;99.90;;;;;;5047909;28;20231;-77
2022/01/01 04:02:42;;;;;;;22.60;10.80;;;14.70;99.90;;;;;;5047496;28;20245;-78
2022/01/01 04:05:09;;;;;;;26.20;11.67;;;14.70;99.90;;;;;;5047547;28;20223;-78
2022/01/01 04:07:36;;;;;;;27.80;10.70;;;14.70;99.90;;;;;;5045702;28;20724;-77
2022/01/01 04:10:03;;;;;;;24.53;10.57;;;14.70;99.90;;;;;;5048284;28;20301;-78
2022/01/01 04:12:30;;;;;;;22.23;10.20;;;14.70;99.90;;;;;;5044318;28;20310;-77
2022/01/01 04:15:00;;;;;;;26.63;10.60;;;14.70;99.90;;;;;;5046418;28;20230;-78
2022/01/01 04:17:40;;;;;;;23.57;10.43;;;14.70;99.90;;;;;;5083518;28;20604;-78
2022/01/01 04:20:08;;;;;;;23.87;10.73;;;14.70;99.90;;;;;;5069412;28;20241;-77
2022/01/01 04:22:35;;;;;;;23.83;10.97;;;14.70;99.90;;;;;;5061655;28;20236;-78
2022/01/01 04:25:01;;;;;;;20.60;10.73;;;14.70;99.90;;;;;;5055108;28;20236;-79
2022/01/01 04:27:28;;;;;;;22.20;9.83;;;14.70;99.90;;;;;;5074079;28;20215;-78
2022/01/01 04:29:55;;;;;;;25.00;11.30;;;14.70;99.90;;;;;;5069636;28;20222;-78
2022/01/01 04:32:21;;;;;;;22.07;11.57;;;14.70;99.90;;;;;;5044066;28;20230;-78
2022/01/01 04:34:49;;;;;;;27.47;11.80;;;14.70;99.90;;;;;;5041181;28;20208;-78
2022/01/01 04:37:18;;;;;;;27.47;12.40;;;14.70;99.90;;;;;;5057009;28;20223;-77
2022/01/01 04:39:45;;;;;;;25.73;12.07;;;14.70;99.90;;;;;;5072048;28;20238;-77
2022/01/01 04:42:11;;;;;;;25.43;11.57;;;14.70;99.90;;;;;;5070273;28;20608;-78
2022/01/01 04:44:38;;;;;;;26.20;11.47;;;14.70;99.90;;;;;;5069890;28;20222;-77
2022/01/01 04:47:05;;;;;;;27.43;12.03;;;14.70;99.90;;;;;;5074119;28;20219;-78
2022/01/01 04:49:32;;;;;;;22.87;11.80;;;14.70;99.90;;;;;;5077767;28;20226;-78
2022/01/01 04:52:00;;;;;;;23.83;12.47;;;14.70;99.90;;;;;;5060487;28;20586;-78
2022/01/01 04:54:27;;;;;;;30.13;12.77;;;14.70;99.90;;;;;;5059188;28;20573;-78
2022/01/01 04:56:53;;;;;;;26.27;13.03;;;14.70;99.90;;;;;;5042965;28;20224;-78
2022/01/01 04:59:20;;;;;;;28.77;12.30;;;14.70;99.90;;;;;;5042883;28;20220;-78
2022/01/01 05:01:47;;;;;;;30.93;12.70;;;14.70;99.90;;;;;;5045324;28;20241;-78
2022/01/01 05:04:13;;;;;;;27.17;12.97;;;14.70;99.90;;;;;;5044280;28;20224;-77
2022/01/01 05:06:41;;;;;;;32.63;13.87;;;14.70;99.90;;;;;;5051390;28;20230;-78
2022/01/01 05:09:10;;;;;;;26.70;13.90;;;14.70;99.90;;;;;;5070272;28;20222;-78
2022/01/01 05:11:36;;;;;;;26.43;13.40;;;14.70;99.90;;;;;;5064075;28;20813;-78
2022/01/01 05:14:03;;;;;;;28.53;13.50;;;14.70;99.90;;;;;;5073061;28;20222;-77
2022/01/01 05:16:30;;;;;;;31.83;13.33;;;14.70;99.90;;;;;;5072797;28;20309;-77
2022/01/01 05:18:56;;;;;;;26.20;14.43;;;14.70;99.90;;;;;;5072289;28;20309;-78
2022/01/01 05:21:23;;;;;;;30.60;14.57;;;14.70;99.90;;;;;;5062374;28;20296;-78
2022/01/01 05:23:50;;;;;;;29.23;14.13;;;14.70;99.90;;;;;;5065581;28;20225;-78
2022/01/01 05:26:18;;;;;;;29.83;14.43;;;14.70;99.90;;;;;;5070557;28;20248;-77
2022/01/01 05:28:48;;;;;;;32.10;14.57;;;14.70;99.90;;;;;;5053491;28;20218;-78
2022/01/01 05:31:15;;;;;;;30.33;15.27;;;14.70;99.90;;;;;;5041448;28;20742;-78
2022/01/01 05:33:42;;;;;;;28.73;14.67;;;14.70;99.90;;;;;;5026844;28;20229;-77
2022/01/01 05:36:08;;;;;;;31.30;15.43;;;14.70;99.90;;;;;;5030737;28;20220;-77
2022/01/01 05:38:35;;;;;;;32.70;15.67;;;14.70;99.90;;;;;;5030852;28;20228;-78
2022/01/01 05:41:02;;;;;;;32.70;15.17;;;14.70;99.90;;;;;;5025545;28;20225;-77
2022/01/01 05:43:30;;;;;;;31.83;15.27;;;14.70;99.90;;;;;;5028788;28;20228;-78
2022/01/01 06:05:24;;;;;;;30.77;15.37;;;14.80;99.90;;;;;;5031588;28;20536;-82
2022/01/01 06:07:51;;;;;;;32.23;15.90;;;14.70;99.90;;;;;;5011788;28;20236;-83
2022/01/01 06:10:18;;;;;;;31.40;16.10;;;14.70;99.90;;;;;;5008616;28;20220;-83
2022/01/01 06:12:44;;;;;;;29.57;15.97;;;14.70;99.90;;;;;;5031605;28;20661;-83
2022/01/01 06:15:11;;;;;;;31.77;15.80;;;14.70;99.90;;;;;;5030411;28;20791;-84
2022/01/01 06:17:38;;;;;;;34.00;16.13;;;14.70;99.90;;;;;;5023278;28;20736;-85
2022/01/01 06:20:05;;;;;;;32.57;15.87;;;14.70;99.90;;;;;;5023012;28;20826;-85
2022/01/01 06:22:33;;;;;;;33.10;15.23;;;14.70;99.90;;;;;;5026355;28;20227;-85
2022/01/01 06:25:00;;;;;;;31.77;15.87;;;14.70;99.90;;;;;;5041152;28;20230;-85
2022/01/01 06:27:27;;;;;;;32.03;15.27;;;14.70;99.90;;;;;;5031987;28;20585;-85
2022/01/01 06:29:54;;;;;;;31.97;15.60;;;14.70;99.90;;;;;;5041615;28;20833;-85
2022/01/01 06:32:21;;;;;;;34.67;15.40;;;14.70;99.90;;;;;;5036936;28;20223;-86
2022/01/01 06:34:47;;;;;;;33.23;15.60;;;14.70;99.90;;;;;;5025279;28;20219;-85
2022/01/01 06:37:14;;;;;;;34.13;15.67;;;14.70;99.90;;;;;;5031136;28;20513;-86
2022/01/01 06:39:43;;;;;;;26.63;14.87;;;14.70;99.90;;;;;;5030336;28;20281;-84
2022/01/01 06:42:10;;;;;;;28.90;15.97;;;14.80;99.90;;;;;;5048954;28;20223;-84
2022/01/01 06:44:37;;;;;;;27.87;14.00;;;14.80;99.90;;;;;;5030977;28;20226;-85
2022/01/01 06:47:04;;;;;;;36.33;15.03;;;14.80;99.90;;;;;;5034254;28;20232;-85
2022/01/01 06:49:31;;;;;;;25.87;13.43;;;14.70;99.90;;;;;;5048583;28;20602;-85
2022/01/01 06:51:57;;;;;;;25.00;14.03;;;14.70;99.90;;;;;;5038339;28;20569;-84
2022/01/01 06:54:24;;;;;;;27.00;13.37;;;14.70;99.90;;;;;;5034373;28;20709;-85
2022/01/01 06:56:52;;;;;;;26.37;13.20;;;14.80;99.90;;;;;;5036940;28;20227;-84
2022/01/01 06:59:19;;;;;;;30.30;14.90;;;14.70;99.90;;;;;;5033905;28;20216;-84
2022/01/01 07:01:45;;;;;;;28.63;14.57;;;14.70;99.90;;;;;;5033718;28;20222;-84
2022/01/01 07:04:12;;;;;;;24.10;13.23;;;14.70;99.90;;;;;;5033583;28;20254;-85
2022/01/01 07:06:39;;;;;;;33.10;14.53;;;14.70;99.90;;;;;;5030140;28;20235;-83
2022/01/01 07:09:06;;;;;;;29.47;14.33;;;14.70;99.90;;;;;;5031209;28;20219;-86
2022/01/01 07:11:32;;;;;;;28.53;13.63;;;14.70;99.90;;;;;;5040189;28;20220;-85
2022/01/01 07:14:00;;;;;;;30.57;13.57;;;14.70;99.90;;;;;;5031310;28;20309;-85
2022/01/01 07:16:27;;;;;;;27.93;13.90;;;14.70;99.90;;;;;;5039516;28;20235;-83
2022/01/01 07:18:54;;;;;;;27.20;12.47;;;14.70;99.90;;;;;;5036552;28;20228;-83
2022/01/01 07:21:21;;;;;;;30.50;13.17;;;14.70;99.90;;;;;;5036294;28;20590;-84
2022/01/01 07:23:47;;;;;;;29.77;14.03;;;14.70;99.90;;;;;;5035217;28;20273;-84
2022/01/01 07:26:14;;;;;;;29.70;13.47;;;14.70;99.90;;;;;;5029786;28;20227;-84
2022/01/01 07:28:41;;;;;;;29.33;12.93;;;14.70;99.90;;;;;;5036024;28;20219;-84
2022/01/01 07:31:09;;;;;;;31.30;12.73;;;14.70;99.90;;;;;;5029210;28;20238;-83
2022/01/01 07:33:36;;;;;;;31.33;12.90;;;14.70;99.90;;;;;;5054655;28;20219;-84
2022/01/01 07:36:03;;;;;;;35.57;14.23;;;14.70;99.90;;;;;;5027454;28;20224;-84
2022/01/01 07:38:30;;;;;;;28.57;13.27;;;14.70;99.90;;;;;;5041218;28;20232;-84
2022/01/01 07:40:56;;;;;;;31.63;13.03;;;14.70;99.90;;;;;;5035394;28;20306;-83
2022/01/01 07:43:23;;;;;;;25.97;12.67;;;14.70;99.90;;;;;;5037418;28;20231;-83
2022/01/01 07:45:50;;;;;;;31.50;13.43;;;14.70;99.90;;;;;;5027046;28;20298;-83
2022/01/01 07:48:19;;;;;;;34.17;13.70;;;14.70;99.90;;;;;;5054403;28;20225;-83
2022/01/01 07:50:45;;;;;;;32.23;13.63;;;14.70;99.90;;;;;;5030632;28;20227;-84
2022/01/01 07:53:12;;;;;;;32.90;14.63;;;14.70;99.90;;;;;;5049226;28;20220;-84
2022/01/01 07:55:39;;;;;;;28.83;14.03;;;14.70;99.90;;;;;;5041599;28;20258;-84
2022/01/01 07:58:06;;;;;;;31.70;14.17;;;14.70;99.90;;;;;;5046143;28;20227;-84
2022/01/01 08:00:33;;;;;;;37.40;14.17;;;14.70;99.90;;;;;;5037269;28;20327;-83
2022/01/01 08:02:59;;;;;;;30.20;14.10;;;14.70;99.90;;;;;;5029204;28;20837;-83
2022/01/01 08:05:28;;;;;;;35.27;15.17;;;14.70;99.90;;;;;;5040665;28;20232;-84
2022/01/01 08:07:54;;;;;;;37.77;15.33;;;14.70;99.90;;;;;;5037720;28;20590;-84
2022/01/01 08:10:23;;;;;;;33.93;14.40;;;14.70;99.90;;;;;;5035610;28;20241;-84
2022/01/01 08:12:49;;;;;;;28.77;13.80;;;14.70;99.90;;;;;;5040004;28;20223;-84
2022/01/01 08:15:16;;;;;;;33.00;14.00;;;14.70;99.90;;;;;;5032349;28;20314;-83
2022/01/01 08:17:43;;;;;;;34.40;15.13;;;14.70;99.90;;;;;;5029952;28;20234;-84
2022/01/01 08:20:11;;;;;;;28.47;13.57;;;14.70;99.90;;;;;;5033725;28;20258;-84
2022/01/01 08:22:39;;;;;;;36.43;14.67;;;14.70;99.90;;;;;;5028894;28;20220;-84
2022/01/01 08:25:06;;;;;;;36.30;14.57;;;14.70;99.90;;;;;;5029778;28;20755;-84
2022/01/01 08:27:33;;;;;;;33.07;14.30;;;14.70;99.90;;;;;;5033501;28;20242;-84
2022/01/01 08:30:00;;;;;;;32.00;14.50;;;14.70;99.90;;;;;;5025059;28;20230;-84
2022/01/01 08:32:26;;;;;;;32.97;15.37;;;14.80;99.90;;;;;;5028477;28;20227;-84
2022/01/01 08:34:53;;;;;;;33.20;14.43;;;14.80;99.90;;;;;;5046868;28;20298;-83
2022/01/01 08:37:20;;;;;;;36.50;14.90;;;14.80;99.90;;;;;;5041691;28;20218;-83
2022/01/01 08:39:48;;;;;;;35.17;15.97;;;14.80;99.90;;;;;;5053973;28;20310;-82
2022/01/01 08:42:15;;;;;;;34.03;15.77;;;14.80;99.90;;;;;;5035656;28;20216;-83
2022/01/01 08:44:42;;;;;;;42.77;16.33;;;14.80;99.90;;;;;;5027592;28;20314;-82
2022/01/01 08:47:08;;;;;;;34.73;15.93;;;14.80;99.90;;;;;;5027712;28;20213;-83
2022/01/01 08:49:35;;;;;;;37.10;17.13;;;14.80;99.90;;;;;;5028989;28;20231;-83
2022/01/01 08:52:02;;;;;;;40.97;16.20;;;14.80;99.90;;;;;;5029031;28;20225;-83
2022/01/01 08:54:29;;;;;;;35.67;17.33;;;14.80;99.90;;;;;;5033013;28;20724;-83
2022/01/01 08:56:57;;;;;;;32.43;16.47;;;14.90;99.90;;;;;;5031316;28;20228;-84
2022/01/01 08:59:23;;;;;;;37.50;16.57;;;14.90;99.90;;;;;;5047609;28;20224;-84
2022/01/01 09:01:50;;;;;;;40.57;16.97;;;14.90;99.90;;;;;;5034091;28;20222;-84
2022/01/01 09:04:17;;;;;;;39.53;16.47;;;14.90;99.90;;;;;;5044309;28;20230;-82
2022/01/01 09:06:43;;;;;;;36.53;16.57;;;14.90;99.90;;;;;;5039804;28;20277;-83
2022/01/01 09:09:11;;;;;;;37.90;17.50;;;14.90;99.90;;;;;;5034631;28;20229;-83
2022/01/01 09:11:37;;;;;;;42.57;17.40;;;14.90;99.90;;;;;;5038440;28;20526;-84
2022/01/01 09:14:05;;;;;;;41.33;17.37;;;14.90;99.90;;;;;;5032689;28;20684;-82
2022/01/01 09:16:32;;;;;;;42.97;18.67;;;14.90;99.90;;;;;;5033209;28;20238;-82
2022/01/01 09:18:59;;;;;;;40.17;16.93;;;14.90;99.90;;;;;;5033794;28;20225;-84
2022/01/01 09:21:27;;;;;;;40.07;17.73;;;14.90;99.90;;;;;;5034622;28;20330;-89
2022/01/01 09:23:54;;;;;;;44.03;18.20;;;14.90;99.90;;;;;;5033226;28;20345;-87
2022/01/01 09:26:21;;;;;;;38.10;17.23;;;14.90;99.90;;;;;;5039523;28;20318;-85
2022/01/01 09:28:48;;;;;;;43.53;18.00;;;15.00;99.90;;;;;;5034016;28;20222;-85
2022/01/01 09:31:16;;;;;;;41.20;18.10;;;15.00;99.90;;;;;;5036195;28;21998;-85
2022/01/01 09:33:43;;;;;;;44.57;19.97;;;15.00;99.90;;;;;;5029672;28;20232;-84
2022/01/01 09:36:14;;;;;;;45.00;19.63;;;15.00;99.90;;;;;;5032852;28;20230;-84
2022/01/01 09:38:42;;;;;;;45.07;19.77;;;15.00;99.90;;;;;;5043397;28;22203;-84
2022/01/01 09:41:09;;;;;;;52.97;20.23;;;15.00;99.90;;;;;;5035281;28;20288;-84
2022/01/01 09:43:36;;;;;;;53.17;21.60;;;15.10;99.90;;;;;;5027983;28;20261;-83
2022/01/01 09:46:04;;;;;;;49.53;21.47;;;15.10;99.90;;;;;;5031810;28;20267;-81
2022/01/01 09:48:32;;;;;;;49.37;21.33;;;15.10;99.90;;;;;;5031093;28;20614;-81
2022/01/01 09:51:01;;;;;;;50.90;21.80;;;15.10;99.90;;;;;;5024865;28;20220;-84
2022/01/01 09:53:30;;;;;;;43.67;22.57;;;15.10;99.90;;;;;;5026245;28;20868;-85
2022/01/01 09:55:58;;;;;;;53.83;24.37;;;15.10;99.90;;;;;;5032925;28;20226;-84
2022/01/01 09:58:26;;;;;;;49.93;23.50;;;15.10;99.90;;;;;;5036581;28;21019;-84
2022/01/01 10:00:53;;;;;;;53.70;24.33;;;15.10;99.90;;;;;;5049152;28;20233;-85
2022/01/01 10:03:27;;;;;;;56.10;25.30;;;15.20;99.90;;;;;;5027381;28;20270;-84
2022/01/01 10:06:03;;;;;;;54.93;27.50;;;15.20;99.90;;;;;;5035652;28;20222;-84
2022/01/01 10:08:30;;;;;;;63.80;29.67;;;15.20;99.90;;;;;;5026056;28;20218;-84
2022/01/01 10:10:58;;;;;;;60.43;30.47;;;15.20;99.90;;;;;;5048369;28;20222;-84
2022/01/01 10:13:29;;;;;;;55.90;27.70;;;15.20;99.90;;;;;;5027115;28;20232;-84
2022/01/01 10:15:58;;;;;;;57.30;29.27;;;15.20;99.90;;;;;;5028612;28;20228;-84
2022/01/01 10:18:31;;;;;;;61.93;30.47;;;15.20;99.90;;;;;;5031396;28;20313;-85
2022/01/01 10:21:00;;;;;;;62.43;31.87;;;15.20;99.90;;;;;;5044454;28;20242;-84
2022/01/01 10:23:30;;;;;;;61.00;31.10;;;15.20;99.90;;;;;;5028221;28;20318;-84
2022/01/01 10:28:57;;;;;;;73.00;35.20;;;15.20;99.90;;;;;;5028099;28;20328;-84
2022/01/01 10:31:24;;;;;;;63.13;33.17;;;15.20;99.90;;;;;;5043352;28;20231;-84
2022/01/01 10:33:51;;;;;;;66.07;34.77;;;15.20;99.90;;;;;;5028365;28;20376;-84
2022/01/01 10:36:20;;;;;;;67.07;35.97;;;15.20;99.90;;;;;;5031956;28;20317;-84
2022/01/01 10:38:49;;;;;;;71.57;35.23;;;15.20;99.90;;;;;;5030715;28;20814;-84
2022/01/01 10:41:17;;;;;;;69.17;35.30;;;15.20;99.90;;;;;;5046540;28;20220;-84
2022/01/01 10:43:46;;;;;;;70.47;35.70;;;15.20;99.90;;;;;;5034392;28;20595;-84
2022/01/01 10:46:15;;;;;;;68.07;34.73;;;15.20;99.90;;;;;;5034469;28;20538;-84
2022/01/01 10:48:54;;;;;;;75.50;35.37;;;15.20;99.90;;;;;;5037554;28;20598;-84
2022/01/01 10:51:22;;;;;;;71.53;35.13;;;15.20;99.90;;;;;;5028857;28;20682;-83
2022/01/01 10:54:01;;;;;;;69.80;36.37;;;15.20;99.90;;;;;;5030022;28;20230;-83
2022/01/01 10:56:36;;;;;;;73.83;35.83;;;15.20;99.90;;;;;;5027209;28;20258;-84
2022/01/01 10:59:04;;;;;;;67.30;34.63;;;15.20;99.90;;;;;;5034214;28;20245;-84
2022/01/01 11:01:33;;;;;;;72.33;37.20;;;15.20;99.90;;;;;;5031773;28;20232;-82
2022/01/01 11:04:01;;;;;;;70.10;35.97;;;15.20;99.90;;;;;;5043634;28;20242;-82
2022/01/01 11:06:33;;;;;;;71.57;35.93;;;15.20;99.90;;;;;;5034367;28;20222;-84
2022/01/01 11:09:02;;;;;;;68.43;36.23;;;15.20;99.90;;;;;;5032471;28;20219;-83
2022/01/01 11:11:31;;;;;;;70.50;34.17;;;15.20;99.90;;;;;;5052667;28;20245;-83
2022/01/01 11:13:58;;;;;;;66.90;32.93;;;15.20;99.90;;;;;;5027822;28;20215;-84
2022/01/01 11:16:26;;;;;;;65.27;33.67;;;15.20;99.90;;;;;;5053384;28;20241;-83
2022/01/01 11:18:53;;;;;;;59.30;32.53;;;15.20;99.90;;;;;;5048521;28;20250;-84
2022/01/01 11:21:21;;;;;;;58.83;31.43;;;15.20;99.90;;;;;;5040760;28;20219;-84
2022/01/01 11:23:48;;;;;;;60.40;30.93;;;15.20;99.90;;;;;;5051312;28;20222;-83
2022/01/01 11:26:16;;;;;;;60.67;30.77;;;15.20;99.90;;;;;;5029396;28;20227;-83
2022/01/01 11:28:43;;;;;;;57.10;29.03;;;15.20;99.90;;;;;;5052263;28;20242;-83
2022/01/01 11:31:13;;;;;;;52.20;28.67;;;15.20;99.90;;;;;;5041924;28;20221;-83
2022/01/01 11:33:42;;;;;;;55.93;27.87;;;15.10;99.90;;;;;;5058874;28;20586;-83
2022/01/01 11:36:19;;;;;;;51.50;27.40;;;15.10;99.90;;;;;;5030675;28;20580;-84
2022/01/01 11:38:46;;;;;;;47.00;25.87;;;15.10;99.90;;;;;;5036944;28;20572;-83
2022/01/01 11:41:17;;;;;;;49.90;26.47;;;15.10;99.90;;;;;;5030901;28;20218;-84
2022/01/01 11:43:46;;;;;;;46.10;25.67;;;15.20;99.90;;;;;;5037369;28;20709;-83
2022/01/01 11:46:14;;;;;;;51.67;24.90;;;15.20;99.90;;;;;;5047427;28;20682;-84
2022/01/01 11:48:51;;;;;;;52.17;26.87;;;15.20;99.90;;;;;;5029925;28;20221;-83
2022/01/01 11:51:36;;;;;;;46.17;23.87;;;15.30;99.90;;;;;;5042925;28;20711;-84
2022/01/01 11:54:16;;;;;;;47.33;23.40;;;15.30;99.90;;;;;;5041658;28;20235;-83
2022/01/01 11:57:02;;;;;;;44.20;22.40;;;15.40;99.90;;;;;;5031563;28;20224;-83
2022/01/01 11:59:30;;;;;;;46.37;22.40;;;15.50;99.90;;;;;;5041590;28;20226;-83
2022/01/01 12:01:59;;;;;;;40.83;21.13;;;15.50;99.90;;;;;;5039221;28;20692;-83
2022/01/01 12:04:31;;;;;;;42.33;22.43;;;15.60;99.90;;;;;;5028712;28;20216;-83
2022/01/01 12:06:59;;;;;;;42.00;22.67;;;15.60;99.90;;;;;;5028688;28;20724;-83
2022/01/01 12:09:26;;;;;;;39.17;20.20;;;15.60;99.90;;;;;;5037378;28;20211;-83
2022/01/01 12:11:57;;;;;;;36.70;19.30;;;15.70;99.90;;;;;;5036940;28;21641;-83
2022/01/01 12:14:26;;;;;;;41.13;20.47;;;15.70;99.90;;;;;;5047533;28;20814;-83
2022/01/01 12:16:54;;;;;;;37.73;19.83;;;15.70;99.90;;;;;;5049954;28;20241;-83
2022/01/01 12:19:22;;;;;;;36.37;19.40;;;15.80;99.90;;;;;;5049018;28;20310;-83
2022/01/01 12:22:00;;;;;;;33.97;18.30;;;15.80;99.90;;;;;;5041153;28;20217;-82
2022/01/01 12:24:28;;;;;;;36.53;19.03;;;15.90;99.90;;;;;;5056504;28;20221;-83
2022/01/01 12:26:56;;;;;;;34.67;18.33;;;15.90;99.90;;;;;;5033941;28;20321;-83
2022/01/01 12:29:26;;;;;;;36.37;19.37;;;16.00;99.90;;;;;;5040625;28;20756;-82
2022/01/01 12:31:56;;;;;;;35.73;18.90;;;16.00;99.90;;;;;;5047627;28;20234;-83
2022/01/01 12:34:23;;;;;;;36.33;19.23;;;16.10;99.90;;;;;;5032508;28;20221;-83
2022/01/01 12:36:53;;;;;;;36.07;17.57;;;16.10;99.90;;;;;;5046625;28;20655;-83
2022/01/01 12:39:19;;;;;;;35.50;18.53;;;16.20;99.90;;;;;;5049553;28;20268;-82
2022/01/01 12:41:46;;;;;;;34.90;18.60;;;16.20;99.90;;;;;;5036576;28;20218;-83
2022/01/01 12:44:20;;;;;;;36.43;18.93;;;16.20;99.90;;;;;;5049504;28;20214;-83
2022/01/01 12:46:49;;;;;;;35.10;18.90;;;16.20;99.90;;;;;;5045554;28;20240;-83
2022/01/01 12:49:17;;;;;;;41.07;19.87;;;16.30;99.90;;;;;;5041597;28;20223;-83
2022/01/01 12:51:45;;;;;;;41.20;20.10;;;16.30;99.90;;;;;;5039091;28;20327;-83
2022/01/01 12:54:13;;;;;;;39.50;21.87;;;16.20;99.90;;;;;;5036052;28;20222;-83